sensor_id;sensor_type;location;lat;lon;timestamp;temperature;humidity
52187;DHT22;38161;53.020;6.598;2023-10-09T00:00:34;13.70;99.90
52187;DHT22;38161;53.020;6.598;2023-10-09T00:03:04;13.70;99.90
52187;DHT22;38161;53.020;6.598;2023-10-09T00:05:37;13.70;99.90
52187;DHT22;38161;53.020;6.598;2023-10-09T00:08:13;13.70;99.90
52187;DHT22;38161;53.020;6.598;2023-10-09T00:10:44;13.70;99.90
52187;DHT22;38161;53.020;6.598;2023-10-09T00:13:19;13.70;99.90
52187;DHT22;38161;53.020;6.598;2023-10-09T00:15:54;13.70;99.90
52187;DHT22;38161;53.020;6.598;2023-10-09T00:18:25;13.70;99.90
52187;DHT22;38161;53.020;6.598;2023-10-09T00:20:56;13.70;99.90
52187;DHT22;38161;53.020;6.598;2023-10-09T00:23:29;13.70;99.90
52187;DHT22;38161;53.020;6.598;2023-10-09T00:25:57;13.70;99.90
52187;DHT22;38161;53.020;6.598;2023-10-09T00:28:52;13.60;99.90
52187;DHT22;38161;53.020;6.598;2023-10-09T00:31:18;13.60;99.90
52187;DHT22;38161;53.020;6.598;2023-10-09T00:33:59;13.60;99.90
52187;DHT22;38161;53.020;6.598;2023-10-09T00:36:27;13.70;99.90
52187;DHT22;38161;53.020;6.598;2023-10-09T00:39:00;13.60;99.90
52187;DHT22;38161;53.020;6.598;2023-10-09T00:41:36;13.60;99.90
52187;DHT22;38161;53.020;6.598;2023-10-09T00:44:02;13.60;99.90
52187;DHT22;38161;53.020;6.598;2023-10-09T00:46:33;13.60;99.90
52187;DHT22;38161;53.020;6.598;2023-10-09T00:49:01;13.60;99.90
52187;DHT22;38161;53.020;6.598;2023-10-09T00:51:29;13.60;99.90
52187;DHT22;38161;53.020;6.598;2023-10-09T00:54:03;13.60;99.90
52187;DHT22;38161;53.020;6.598;2023-10-09T00:56:33;13.70;99.90
52187;DHT22;38161;53.020;6.598;2023-10-09T00:59:09;13.60;99.90
52187;DHT22;38161;53.020;6.598;2023-10-09T01:01:40;13.70;99.90
52187;DHT22;38161;53.020;6.598;2023-10-09T01:04:11;13.60;99.90
52187;DHT22;38161;53.020;6.598;2023-10-09T01:06:45;13.70;99.90
52187;DHT22;38161;53.020;6.598;2023-10-09T01:09:12;13.70;99.90
52187;DHT22;38161;53.020;6.598;2023-10-09T01:11:48;13.60;99.90
52187;DHT22;38161;53.020;6.598;2023-10-09T01:14:31;13.70;99.90
52187;DHT22;38161;53.020;6.598;2023-10-09T01:17:04;13.70;99.90
52187;DHT22;38161;53.020;6.598;2023-10-09T01:19:33;13.70;99.90
52187;DHT22;38161;53.020;6.598;2023-10-09T01:22:00;13.70;99.90
52187;DHT22;38161;53.020;6.598;2023-10-09T01:24:42;13.70;99.90
52187;DHT22;38161;53.020;6.598;2023-10-09T01:27:09;13.70;99.90
52187;DHT22;38161;53.020;6.598;2023-10-09T01:29:41;13.70;99.90
52187;DHT22;38161;53.020;6.598;2023-10-09T01:32:08;13.70;99.90
52187;DHT22;38161;53.020;6.598;2023-10-09T01:34:42;13.70;99.90
52187;DHT22;38161;53.020;6.598;2023-10-09T01:37:13;13.80;99.90
52187;DHT22;38161;53.020;6.598;2023-10-09T01:39:50;13.70;99.90
52187;DHT22;38161;53.020;6.598;2023-10-09T01:42:18;13.70;99.90
52187;DHT22;38161;53.020;6.598;2023-10-09T01:44:53;13.80;99.90
52187;DHT22;38161;53.020;6.598;2023-10-09T01:47:19;13.70;99.90
52187;DHT22;38161;53.020;6.598;2023-10-09T01:49:47;13.70;99.90
52187;DHT22;38161;53.020;6.598;2023-10-09T01:52:18;13.70;99.90
52187;DHT22;38161;53.020;6.598;2023-10-09T01:54:47;13.70;99.90
52187;DHT22;38161;53.020;6.598;2023-10-09T01:57:18;13.80;99.90
52187;DHT22;38161;53.020;6.598;2023-10-09T01:59:49;13.80;99.90
52187;DHT22;38161;53.020;6.598;2023-10-09T02:02:16;13.70;99.90
52187;DHT22;38161;53.020;6.598;2023-10-09T02:04:53;13.70;99.90
52187;DHT22;38161;53.020;6.598;2023-10-09T02:07:20;13.80;99.90
52187;DHT22;38161;53.020;6.598;2023-10-09T02:10:14;13.70;99.90
52187;DHT22;38161;53.020;6.598;2023-10-09T02:12:49;13.70;99.90
52187;DHT22;38161;53.020;6.598;2023-10-09T02:15:19;13.70;99.90
52187;DHT22;38161;53.020;6.598;2023-10-09T02:18:05;13.70;99.90
52187;DHT22;38161;53.020;6.598;2023-10-09T02:20:46;13.70;99.90
52187;DHT22;38161;53.020;6.598;2023-10-09T02:23:13;13.70;99.90
52187;DHT22;38161;53.020;6.598;2023-10-09T02:25:42;13.80;99.90
52187;DHT22;38161;53.020;6.598;2023-10-09T02:28:11;13.80;99.90
52187;DHT22;38161;53.020;6.598;2023-10-09T02:30:45;13.80;99.90
52187;DHT22;38161;53.020;6.598;2023-10-09T02:33:17;13.80;99.90
52187;DHT22;38161;53.020;6.598;2023-10-09T02:35:57;13.80;99.90
52187;DHT22;38161;53.020;6.598;2023-10-09T02:38:27;13.80;99.90
52187;DHT22;38161;53.020;6.598;2023-10-09T02:40:53;13.80;99.90
52187;DHT22;38161;53.020;6.598;2023-10-09T02:43:42;13.80;99.90
52187;DHT22;38161;53.020;6.598;2023-10-09T02:46:15;13.80;99.90
52187;DHT22;38161;53.020;6.598;2023-10-09T02:48:47;13.80;99.90
52187;DHT22;38161;53.020;6.598;2023-10-09T02:51:24;13.80;99.90
52187;DHT22;38161;53.020;6.598;2023-10-09T02:53:58;13.70;99.90
52187;DHT22;38161;53.020;6.598;2023-10-09T02:56:25;13.80;99.90
52187;DHT22;38161;53.020;6.598;2023-10-09T02:59:09;13.80;99.90
52187;DHT22;38161;53.020;6.598;2023-10-09T03:01:38;13.80;99.90
52187;DHT22;38161;53.020;6.598;2023-10-09T03:04:05;13.70;99.90
52187;DHT22;38161;53.020;6.598;2023-10-09T03:06:41;13.70;99.90
52187;DHT22;38161;53.020;6.598;2023-10-09T03:09:17;13.80;99.90
52187;DHT22;38161;53.020;6.598;2023-10-09T03:11:45;13.80;99.90
52187;DHT22;38161;53.020;6.598;2023-10-09T03:14:12;13.80;99.90
52187;DHT22;38161;53.020;6.598;2023-10-09T03:16:38;13.80;99.90
52187;DHT22;38161;53.020;6.598;2023-10-09T03:19:04;13.80;99.90
52187;DHT22;38161;53.020;6.598;2023-10-09T03:21:30;13.80;99.90
52187;DHT22;38161;53.020;6.598;2023-10-09T03:23:56;13.80;99.90
52187;DHT22;38161;53.020;6.598;2023-10-09T03:26:22;13.80;99.90
52187;DHT22;38161;53.020;6.598;2023-10-09T03:28:51;13.80;99.90
52187;DHT22;38161;53.020;6.598;2023-10-09T03:31:20;13.80;99.90
52187;DHT22;38161;53.020;6.598;2023-10-09T03:33:47;13.80;99.90
52187;DHT22;38161;53.020;6.598;2023-10-09T03:36:13;13.80;99.90
52187;DHT22;38161;53.020;6.598;2023-10-09T03:38:42;13.90;99.90
52187;DHT22;38161;53.020;6.598;2023-10-09T03:41:10;13.90;99.90
52187;DHT22;38161;53.020;6.598;2023-10-09T03:43:38;13.90;99.90
52187;DHT22;38161;53.020;6.598;2023-10-09T03:46:15;13.90;99.90
52187;DHT22;38161;53.020;6.598;2023-10-09T03:48:54;13.90;99.90
52187;DHT22;38161;53.020;6.598;2023-10-09T03:51:23;13.90;99.90
52187;DHT22;38161;53.020;6.598;2023-10-09T03:53:49;13.90;99.90
52187;DHT22;38161;53.020;6.598;2023-10-09T03:56:26;14.00;99.90
52187;DHT22;38161;53.020;6.598;2023-10-09T03:58:53;14.00;99.90
52187;DHT22;38161;53.020;6.598;2023-10-09T04:01:20;14.00;99.90
52187;DHT22;38161;53.020;6.598;2023-10-09T04:03:57;14.00;99.90
52187;DHT22;38161;53.020;6.598;2023-10-09T04:06:27;14.10;99.90
52187;DHT22;38161;53.020;6.598;2023-10-09T04:08:58;14.10;99.90
52187;DHT22;38161;53.020;6.598;2023-10-09T04:11:25;14.10;99.90
52187;DHT22;38161;53.020;6.598;2023-10-09T04:13:51;14.10;99.90
52187;DHT22;38161;53.020;6.598;2023-10-09T04:16:25;14.20;99.90
52187;DHT22;38161;53.020;6.598;2023-10-09T04:18:57;14.20;99.90
52187;DHT22;38161;53.020;6.598;2023-10-09T04:21:25;14.20;99.90
52187;DHT22;38161;53.020;6.598;2023-10-09T04:24:04;14.20;99.90
52187;DHT22;38161;53.020;6.598;2023-10-09T04:26:43;14.20;99.90
52187;DHT22;38161;53.020;6.598;2023-10-09T04:29:11;14.20;99.90
52187;DHT22;38161;53.020;6.598;2023-10-09T04:31:57;14.30;99.90
52187;DHT22;38161;53.020;6.598;2023-10-09T04:34:26;14.30;99.90
52187;DHT22;38161;53.020;6.598;2023-10-09T04:37:02;14.30;99.90
52187;DHT22;38161;53.020;6.598;2023-10-09T04:39:48;14.30;99.90
52187;DHT22;38161;53.020;6.598;2023-10-09T04:42:26;14.30;99.90
52187;DHT22;38161;53.020;6.598;2023-10-09T04:45:03;14.40;99.90
52187;DHT22;38161;53.020;6.598;2023-10-09T04:47:30;14.40;99.90
52187;DHT22;38161;53.020;6.598;2023-10-09T04:50:09;14.40;99.90
52187;DHT22;38161;53.020;6.598;2023-10-09T04:53:04;14.50;99.90
52187;DHT22;38161;53.020;6.598;2023-10-09T04:55:42;14.50;99.90
52187;DHT22;38161;53.020;6.598;2023-10-09T04:58:22;14.50;99.90
52187;DHT22;38161;53.020;6.598;2023-10-09T05:01:02;14.50;99.90
52187;DHT22;38161;53.020;6.598;2023-10-09T05:03:30;14.60;99.90
52187;DHT22;38161;53.020;6.598;2023-10-09T05:06:11;14.60;99.90
52187;DHT22;38161;53.020;6.598;2023-10-09T05:08:47;14.60;99.90
52187;DHT22;38161;53.020;6.598;2023-10-09T05:11:14;14.60;99.90
52187;DHT22;38161;53.020;6.598;2023-10-09T05:13:58;14.60;99.90
52187;DHT22;38161;53.020;6.598;2023-10-09T05:16:37;14.60;99.90
52187;DHT22;38161;53.020;6.598;2023-10-09T05:19:14;14.70;99.90
52187;DHT22;38161;53.020;6.598;2023-10-09T05:22:15;14.70;99.90
52187;DHT22;38161;53.020;6.598;2023-10-09T05:25:02;14.70;99.90
52187;DHT22;38161;53.020;6.598;2023-10-09T05:27:29;14.70;99.90
52187;DHT22;38161;53.020;6.598;2023-10-09T05:30:11;14.70;99.90
52187;DHT22;38161;53.020;6.598;2023-10-09T05:32:56;14.70;99.90
52187;DHT22;38161;53.020;6.598;2023-10-09T05:35:29;14.80;99.90
52187;DHT22;38161;53.020;6.598;2023-10-09T05:38:25;14.80;99.90
52187;DHT22;38161;53.020;6.598;2023-10-09T05:40:52;14.80;99.90
52187;DHT22;38161;53.020;6.598;2023-10-09T05:43:20;14.90;99.90
52187;DHT22;38161;53.020;6.598;2023-10-09T05:46:05;14.90;99.90
52187;DHT22;38161;53.020;6.598;2023-10-09T05:48:35;14.90;99.90
52187;DHT22;38161;53.020;6.598;2023-10-09T05:51:04;14.90;99.90
52187;DHT22;38161;53.020;6.598;2023-10-09T05:53:35;14.90;99.90
52187;DHT22;38161;53.020;6.598;2023-10-09T05:56:10;15.00;99.90
52187;DHT22;38161;53.020;6.598;2023-10-09T05:58:55;15.00;99.90
52187;DHT22;38161;53.020;6.598;2023-10-09T06:01:39;15.00;99.90
52187;DHT22;38161;53.020;6.598;2023-10-09T06:04:41;15.00;99.90
52187;DHT22;38161;53.020;6.598;2023-10-09T06:07:25;15.00;99.90
52187;DHT22;38161;53.020;6.598;2023-10-09T06:10:13;15.00;99.90
52187;DHT22;38161;53.020;6.598;2023-10-09T06:12:58;15.10;99.90
52187;DHT22;38161;53.020;6.598;2023-10-09T06:15:34;15.00;99.90
52187;DHT22;38161;53.020;6.598;2023-10-09T06:18:09;15.10;99.90
52187;DHT22;38161;53.020;6.598;2023-10-09T06:20:59;15.10;99.90
52187;DHT22;38161;53.020;6.598;2023-10-09T06:23:31;15.10;99.90
52187;DHT22;38161;53.020;6.598;2023-10-09T06:26:15;15.10;99.90
52187;DHT22;38161;53.020;6.598;2023-10-09T06:28:51;15.20;99.90
52187;DHT22;38161;53.020;6.598;2023-10-09T06:31:37;15.10;99.90
52187;DHT22;38161;53.020;6.598;2023-10-09T06:34:22;15.20;99.90
52187;DHT22;38161;53.020;6.598;2023-10-09T06:36:59;15.20;99.90
52187;DHT22;38161;53.020;6.598;2023-10-09T06:39:42;15.20;99.90
52187;DHT22;38161;53.020;6.598;2023-10-09T06:42:27;15.20;99.90
52187;DHT22;38161;53.020;6.598;2023-10-09T06:45:08;15.30;99.90
52187;DHT22;38161;53.020;6.598;2023-10-09T06:47:37;15.20;99.90
52187;DHT22;38161;53.020;6.598;2023-10-09T06:50:29;15.30;99.90
52187;DHT22;38161;53.020;6.598;2023-10-09T06:53:13;15.30;99.90
52187;DHT22;38161;53.020;6.598;2023-10-09T06:55:39;15.30;99.90
52187;DHT22;38161;53.020;6.598;2023-10-09T06:58:19;15.30;99.90
52187;DHT22;38161;53.020;6.598;2023-10-09T07:00:54;15.30;99.90
52187;DHT22;38161;53.020;6.598;2023-10-09T07:03:27;15.30;99.90
52187;DHT22;38161;53.020;6.598;2023-10-09T07:06:04;15.30;99.90
52187;DHT22;38161;53.020;6.598;2023-10-09T07:08:56;15.40;99.90
52187;DHT22;38161;53.020;6.598;2023-10-09T07:11:38;15.40;99.90
52187;DHT22;38161;53.020;6.598;2023-10-09T07:14:08;15.40;99.90
52187;DHT22;38161;53.020;6.598;2023-10-09T07:16:38;15.40;99.90
52187;DHT22;38161;53.020;6.598;2023-10-09T07:19:07;15.40;99.90
52187;DHT22;38161;53.020;6.598;2023-10-09T07:21:50;15.40;99.90
52187;DHT22;38161;53.020;6.598;2023-10-09T07:24:20;15.40;99.90
52187;DHT22;38161;53.020;6.598;2023-10-09T07:26:50;15.40;99.90
52187;DHT22;38161;53.020;6.598;2023-10-09T07:29:20;15.40;99.90
52187;DHT22;38161;53.020;6.598;2023-10-09T07:31:51;15.50;99.90
52187;DHT22;38161;53.020;6.598;2023-10-09T07:34:24;15.50;99.90
52187;DHT22;38161;53.020;6.598;2023-10-09T07:37:26;15.50;99.90
52187;DHT22;38161;53.020;6.598;2023-10-09T07:39:57;15.50;99.90
52187;DHT22;38161;53.020;6.598;2023-10-09T07:42:24;15.50;99.90
52187;DHT22;38161;53.020;6.598;2023-10-09T07:45:10;15.60;99.90
52187;DHT22;38161;53.020;6.598;2023-10-09T07:47:49;15.50;99.90
52187;DHT22;38161;53.020;6.598;2023-10-09T07:50:40;15.50;99.90
52187;DHT22;38161;53.020;6.598;2023-10-09T07:53:09;15.50;99.90
52187;DHT22;38161;53.020;6.598;2023-10-09T07:55:46;15.60;99.90
52187;DHT22;38161;53.020;6.598;2023-10-09T07:58:27;15.50;99.90
52187;DHT22;38161;53.020;6.598;2023-10-09T08:00:56;15.60;99.90
52187;DHT22;38161;53.020;6.598;2023-10-09T08:03:33;15.60;99.90
52187;DHT22;38161;53.020;6.598;2023-10-09T08:06:01;15.60;99.90
52187;DHT22;38161;53.020;6.598;2023-10-09T08:08:46;15.60;99.90
52187;DHT22;38161;53.020;6.598;2023-10-09T08:11:46;15.60;99.90
52187;DHT22;38161;53.020;6.598;2023-10-09T08:14:13;15.60;99.90
52187;DHT22;38161;53.020;6.598;2023-10-09T08:16:58;15.60;99.90
52187;DHT22;38161;53.020;6.598;2023-10-09T08:19:49;15.60;99.90
52187;DHT22;38161;53.020;6.598;2023-10-09T08:22:29;15.70;99.90
52187;DHT22;38161;53.020;6.598;2023-10-09T08:24:56;15.70;99.90
52187;DHT22;38161;53.020;6.598;2023-10-09T08:27:29;15.70;99.90
52187;DHT22;38161;53.020;6.598;2023-10-09T08:30:03;15.70;99.90
52187;DHT22;38161;53.020;6.598;2023-10-09T08:32:46;15.80;99.90
52187;DHT22;38161;53.020;6.598;2023-10-09T08:35:35;15.80;99.90
52187;DHT22;38161;53.020;6.598;2023-10-09T08:38:13;15.80;99.90
52187;DHT22;38161;53.020;6.598;2023-10-09T08:40:41;15.80;99.90
52187;DHT22;38161;53.020;6.598;2023-10-09T08:43:22;15.80;99.90
52187;DHT22;38161;53.020;6.598;2023-10-09T08:45:56;15.80;99.90
52187;DHT22;38161;53.020;6.598;2023-10-09T08:48:28;15.80;99.90
52187;DHT22;38161;53.020;6.598;2023-10-09T08:50:56;15.80;99.90
52187;DHT22;38161;53.020;6.598;2023-10-09T08:53:24;15.80;99.90
52187;DHT22;38161;53.020;6.598;2023-10-09T08:55:56;15.80;99.90
52187;DHT22;38161;53.020;6.598;2023-10-09T08:58:24;15.80;99.90
52187;DHT22;38161;53.020;6.598;2023-10-09T09:00:52;15.80;99.90
52187;DHT22;38161;53.020;6.598;2023-10-09T09:03:22;15.80;99.90
52187;DHT22;38161;53.020;6.598;2023-10-09T09:05:59;15.80;99.90
52187;DHT22;38161;53.020;6.598;2023-10-09T09:08:30;15.80;99.90
52187;DHT22;38161;53.020;6.598;2023-10-09T09:11:08;15.80;99.90
52187;DHT22;38161;53.020;6.598;2023-10-09T09:13:38;15.80;99.90
52187;DHT22;38161;53.020;6.598;2023-10-09T09:16:23;15.80;99.90
52187;DHT22;38161;53.020;6.598;2023-10-09T09:19:03;15.80;99.90
52187;DHT22;38161;53.020;6.598;2023-10-09T09:21:58;15.90;99.90
52187;DHT22;38161;53.020;6.598;2023-10-09T09:24:37;15.90;99.90
52187;DHT22;38161;53.020;6.598;2023-10-09T09:27:05;15.90;99.90
52187;DHT22;38161;53.020;6.598;2023-10-09T09:29:57;15.90;99.90
52187;DHT22;38161;53.020;6.598;2023-10-09T09:32:33;15.90;99.90
52187;DHT22;38161;53.020;6.598;2023-10-09T09:35:02;16.00;99.90
52187;DHT22;38161;53.020;6.598;2023-10-09T09:37:32;16.00;99.90
52187;DHT22;38161;53.020;6.598;2023-10-09T09:40:16;16.00;99.90
52187;DHT22;38161;53.020;6.598;2023-10-09T09:43:02;16.00;99.90
52187;DHT22;38161;53.020;6.598;2023-10-09T09:45:36;16.00;99.90
52187;DHT22;38161;53.020;6.598;2023-10-09T09:48:03;16.00;99.90
52187;DHT22;38161;53.020;6.598;2023-10-09T09:50:36;16.00;99.90
52187;DHT22;38161;53.020;6.598;2023-10-09T09:53:11;16.10;99.90
52187;DHT22;38161;53.020;6.598;2023-10-09T09:55:47;16.10;99.90
52187;DHT22;38161;53.020;6.598;2023-10-09T09:58:18;16.10;99.90
52187;DHT22;38161;53.020;6.598;2023-10-09T10:00:53;16.10;99.90
52187;DHT22;38161;53.020;6.598;2023-10-09T10:03:34;16.20;99.90
52187;DHT22;38161;53.020;6.598;2023-10-09T10:06:05;16.20;99.90
52187;DHT22;38161;53.020;6.598;2023-10-09T10:08:47;16.20;99.90
52187;DHT22;38161;53.020;6.598;2023-10-09T10:11:46;16.20;99.90
52187;DHT22;38161;53.020;6.598;2023-10-09T10:14:18;16.30;99.90
52187;DHT22;38161;53.020;6.598;2023-10-09T10:17:07;16.30;99.90
52187;DHT22;38161;53.020;6.598;2023-10-09T10:22:28;16.30;99.90
52187;DHT22;38161;53.020;6.598;2023-10-09T10:24:58;16.30;99.90
52187;DHT22;38161;53.020;6.598;2023-10-09T10:27:29;16.40;99.90
52187;DHT22;38161;53.020;6.598;2023-10-09T10:30:28;16.40;99.90
52187;DHT22;38161;53.020;6.598;2023-10-09T10:33:00;16.40;99.90
52187;DHT22;38161;53.020;6.598;2023-10-09T10:35:35;16.40;99.90
52187;DHT22;38161;53.020;6.598;2023-10-09T10:38:32;16.40;99.90
52187;DHT22;38161;53.020;6.598;2023-10-09T10:41:14;16.40;99.90
52187;DHT22;38161;53.020;6.598;2023-10-09T10:43:44;16.40;99.90
52187;DHT22;38161;53.020;6.598;2023-10-09T10:46:15;16.40;99.90
52187;DHT22;38161;53.020;6.598;2023-10-09T10:49:07;16.40;99.90
52187;DHT22;38161;53.020;6.598;2023-10-09T10:51:56;16.40;99.90
52187;DHT22;38161;53.020;6.598;2023-10-09T10:54:43;16.40;99.90
52187;DHT22;38161;53.020;6.598;2023-10-09T10:57:16;16.40;99.90
52187;DHT22;38161;53.020;6.598;2023-10-09T10:59:55;16.40;99.90
52187;DHT22;38161;53.020;6.598;2023-10-09T11:02:40;16.30;99.90
52187;DHT22;38161;53.020;6.598;2023-10-09T11:05:07;16.40;99.90
52187;DHT22;38161;53.020;6.598;2023-10-09T11:07:57;16.40;99.90
52187;DHT22;38161;53.020;6.598;2023-10-09T11:10:25;16.30;99.90
52187;DHT22;38161;53.020;6.598;2023-10-09T11:13:24;16.30;99.90
52187;DHT22;38161;53.020;6.598;2023-10-09T11:15:57;16.30;99.90
52187;DHT22;38161;53.020;6.598;2023-10-09T11:18:43;16.30;99.90
52187;DHT22;38161;53.020;6.598;2023-10-09T11:21:47;16.30;99.90
52187;DHT22;38161;53.020;6.598;2023-10-09T11:24:19;16.40;99.90
52187;DHT22;38161;53.020;6.598;2023-10-09T11:26:53;16.40;99.90
52187;DHT22;38161;53.020;6.598;2023-10-09T11:29:24;16.40;99.90
52187;DHT22;38161;53.020;6.598;2023-10-09T11:34:49;16.50;99.90
52187;DHT22;38161;53.020;6.598;2023-10-09T11:37:23;16.50;99.90
52187;DHT22;38161;53.020;6.598;2023-10-09T11:39:59;16.40;99.90
52187;DHT22;38161;53.020;6.598;2023-10-09T11:42:29;16.40;99.90
52187;DHT22;38161;53.020;6.598;2023-10-09T11:45:21;16.40;99.90
52187;DHT22;38161;53.020;6.598;2023-10-09T11:47:51;16.50;99.90
52187;DHT22;38161;53.020;6.598;2023-10-09T11:50:45;16.50;99.90
52187;DHT22;38161;53.020;6.598;2023-10-09T11:53:18;16.50;99.90
52187;DHT22;38161;53.020;6.598;2023-10-09T11:55:51;16.40;99.90
52187;DHT22;38161;53.020;6.598;2023-10-09T11:58:19;16.50;99.90
52187;DHT22;38161;53.020;6.598;2023-10-09T12:00:55;16.40;99.90
52187;DHT22;38161;53.020;6.598;2023-10-09T12:03:28;16.40;99.90
52187;DHT22;38161;53.020;6.598;2023-10-09T12:05:56;16.50;99.90
52187;DHT22;38161;53.020;6.598;2023-10-09T12:08:24;16.50;99.90
52187;DHT22;38161;53.020;6.598;2023-10-09T12:10:53;16.50;99.90
52187;DHT22;38161;53.020;6.598;2023-10-09T12:13:23;16.60;99.90
52187;DHT22;38161;53.020;6.598;2023-10-09T12:15:51;16.70;99.90
52187;DHT22;38161;53.020;6.598;2023-10-09T12:18:21;16.70;99.90
52187;DHT22;38161;53.020;6.598;2023-10-09T12:20:50;16.70;99.90
52187;DHT22;38161;53.020;6.598;2023-10-09T12:23:17;16.80;99.90
52187;DHT22;38161;53.020;6.598;2023-10-09T12:25:43;16.70;99.90
52187;DHT22;38161;53.020;6.598;2023-10-09T12:28:13;16.80;99.90
52187;DHT22;38161;53.020;6.598;2023-10-09T12:30:40;16.80;99.90
52187;DHT22;38161;53.020;6.598;2023-10-09T12:33:06;16.80;99.90
52187;DHT22;38161;53.020;6.598;2023-10-09T12:35:38;16.80;99.90
52187;DHT22;38161;53.020;6.598;2023-10-09T12:38:05;16.70;99.90
52187;DHT22;38161;53.020;6.598;2023-10-09T12:40:36;16.80;99.90
52187;DHT22;38161;53.020;6.598;2023-10-09T12:43:03;16.80;99.90
52187;DHT22;38161;53.020;6.598;2023-10-09T12:45:29;16.80;99.90
52187;DHT22;38161;53.020;6.598;2023-10-09T12:47:58;16.90;99.90
52187;DHT22;38161;53.020;6.598;2023-10-09T12:50:25;16.90;99.90
52187;DHT22;38161;53.020;6.598;2023-10-09T12:52:58;16.90;99.90
52187;DHT22;38161;53.020;6.598;2023-10-09T12:55:39;16.90;99.90
52187;DHT22;38161;53.020;6.598;2023-10-09T12:58:10;16.90;99.90
52187;DHT22;38161;53.020;6.598;2023-10-09T13:00:41;17.00;99.90
52187;DHT22;38161;53.020;6.598;2023-10-09T13:03:18;17.00;99.90
52187;DHT22;38161;53.020;6.598;2023-10-09T13:05:53;17.00;99.90
52187;DHT22;38161;53.020;6.598;2023-10-09T13:08:25;17.00;99.90
52187;DHT22;38161;53.020;6.598;2023-10-09T13:11:09;17.10;99.90
52187;DHT22;38161;53.020;6.598;2023-10-09T13:13:37;17.10;99.90
52187;DHT22;38161;53.020;6.598;2023-10-09T13:16:12;17.10;99.90
52187;DHT22;38161;53.020;6.598;2023-10-09T13:18:46;17.20;99.90
52187;DHT22;38161;53.020;6.598;2023-10-09T13:21:23;17.20;99.90
52187;DHT22;38161;53.020;6.598;2023-10-09T13:23:50;17.20;99.90
52187;DHT22;38161;53.020;6.598;2023-10-09T13:26:18;17.30;99.90
52187;DHT22;38161;53.020;6.598;2023-10-09T13:28:48;17.30;99.90
52187;DHT22;38161;53.020;6.598;2023-10-09T13:31:15;17.30;99.90
52187;DHT22;38161;53.020;6.598;2023-10-09T13:33:44;17.40;99.90
52187;DHT22;38161;53.020;6.598;2023-10-09T13:36:11;17.30;99.90
52187;DHT22;38161;53.020;6.598;2023-10-09T13:38:47;17.30;99.90
52187;DHT22;38161;53.020;6.598;2023-10-09T13:41:14;17.40;99.90
52187;DHT22;38161;53.020;6.598;2023-10-09T13:43:41;17.30;99.90
52187;DHT22;38161;53.020;6.598;2023-10-09T13:46:11;17.30;99.90
52187;DHT22;38161;53.020;6.598;2023-10-09T13:48:41;17.30;99.90
52187;DHT22;38161;53.020;6.598;2023-10-09T13:51:10;17.30;99.90
52187;DHT22;38161;53.020;6.598;2023-10-09T13:53:44;17.20;99.90
52187;DHT22;38161;53.020;6.598;2023-10-09T13:56:19;17.20;99.90
52187;DHT22;38161;53.020;6.598;2023-10-09T13:58:50;17.20;99.90
52187;DHT22;38161;53.020;6.598;2023-10-09T14:01:17;17.10;99.90
52187;DHT22;38161;53.020;6.598;2023-10-09T14:03:55;17.10;99.90
52187;DHT22;38161;53.020;6.598;2023-10-09T14:06:22;17.10;99.90
52187;DHT22;38161;53.020;6.598;2023-10-09T14:09:02;17.00;99.90
52187;DHT22;38161;53.020;6.598;2023-10-09T14:11:33;17.00;99.90
52187;DHT22;38161;53.020;6.598;2023-10-09T14:14:04;17.00;99.90
52187;DHT22;38161;53.020;6.598;2023-10-09T14:16:36;17.00;99.90
52187;DHT22;38161;53.020;6.598;2023-10-09T14:19:02;17.00;99.90
52187;DHT22;38161;53.020;6.598;2023-10-09T14:21:33;16.90;99.90
52187;DHT22;38161;53.020;6.598;2023-10-09T14:24:07;16.90;99.90
52187;DHT22;38161;53.020;6.598;2023-10-09T14:26:43;16.90;99.90
52187;DHT22;38161;53.020;6.598;2023-10-09T14:29:11;16.90;99.90
52187;DHT22;38161;53.020;6.598;2023-10-09T14:31:43;16.90;99.90
52187;DHT22;38161;53.020;6.598;2023-10-09T14:34:09;16.80;99.90
52187;DHT22;38161;53.020;6.598;2023-10-09T14:36:35;16.80;99.90
52187;DHT22;38161;53.020;6.598;2023-10-09T14:39:02;16.80;99.90
52187;DHT22;38161;53.020;6.598;2023-10-09T14:41:30;16.80;99.90
52187;DHT22;38161;53.020;6.598;2023-10-09T14:43:59;16.80;99.90
52187;DHT22;38161;53.020;6.598;2023-10-09T14:46:26;16.80;99.90
52187;DHT22;38161;53.020;6.598;2023-10-09T14:48:54;16.80;99.90
52187;DHT22;38161;53.020;6.598;2023-10-09T14:51:23;16.80;99.90
52187;DHT22;38161;53.020;6.598;2023-10-09T14:53:55;16.80;99.90
52187;DHT22;38161;53.020;6.598;2023-10-09T14:56:31;16.80;99.90
52187;DHT22;38161;53.020;6.598;2023-10-09T14:58:59;16.80;99.90
52187;DHT22;38161;53.020;6.598;2023-10-09T15:01:26;16.70;99.90
52187;DHT22;38161;53.020;6.598;2023-10-09T15:03:59;16.70;99.90
52187;DHT22;38161;53.020;6.598;2023-10-09T15:06:29;16.70;99.90
52187;DHT22;38161;53.020;6.598;2023-10-09T15:08:57;16.70;99.90
52187;DHT22;38161;53.020;6.598;2023-10-09T15:11:35;16.70;99.90
52187;DHT22;38161;53.020;6.598;2023-10-09T15:14:05;16.70;99.90
52187;DHT22;38161;53.020;6.598;2023-10-09T15:16:37;16.70;99.90
52187;DHT22;38161;53.020;6.598;2023-10-09T15:19:06;16.70;99.90
52187;DHT22;38161;53.020;6.598;2023-10-09T15:21:32;16.60;99.90
52187;DHT22;38161;53.020;6.598;2023-10-09T15:23:59;16.70;99.90
52187;DHT22;38161;53.020;6.598;2023-10-09T15:26:25;16.70;99.90
52187;DHT22;38161;53.020;6.598;2023-10-09T15:29:00;16.60;99.90
52187;DHT22;38161;53.020;6.598;2023-10-09T15:31:26;16.60;99.90
52187;DHT22;38161;53.020;6.598;2023-10-09T15:33:53;16.60;99.90
52187;DHT22;38161;53.020;6.598;2023-10-09T15:36:19;16.50;99.90
52187;DHT22;38161;53.020;6.598;2023-10-09T15:38:51;16.50;99.90
52187;DHT22;38161;53.020;6.598;2023-10-09T15:41:18;16.50;99.90
52187;DHT22;38161;53.020;6.598;2023-10-09T15:43:47;16.50;99.90
52187;DHT22;38161;53.020;6.598;2023-10-09T15:46:13;16.50;99.90
52187;DHT22;38161;53.020;6.598;2023-10-09T15:48:43;16.50;99.90
52187;DHT22;38161;53.020;6.598;2023-10-09T15:51:11;16.40;99.90
52187;DHT22;38161;53.020;6.598;2023-10-09T15:53:46;16.40;99.90
52187;DHT22;38161;53.020;6.598;2023-10-09T15:56:13;16.40;99.90
52187;DHT22;38161;53.020;6.598;2023-10-09T15:58:40;16.40;99.90
52187;DHT22;38161;53.020;6.598;2023-10-09T16:01:10;16.40;99.90
52187;DHT22;38161;53.020;6.598;2023-10-09T16:03:42;16.40;99.90
52187;DHT22;38161;53.020;6.598;2023-10-09T16:06:10;16.30;99.90
52187;DHT22;38161;53.020;6.598;2023-10-09T16:08:47;16.30;99.90
52187;DHT22;38161;53.020;6.598;2023-10-09T16:11:20;16.30;99.90
52187;DHT22;38161;53.020;6.598;2023-10-09T16:13:50;16.30;99.90
52187;DHT22;38161;53.020;6.598;2023-10-09T16:16:27;16.30;99.90
52187;DHT22;38161;53.020;6.598;2023-10-09T16:18:54;16.20;99.90